createdAt,value
2019-02-26T00:00:59.684Z,2.00
2019-02-26T00:03:28.535Z,1.90
2019-02-26T00:05:56.843Z,2.00
2019-02-26T00:08:26.721Z,1.90
2019-02-26T00:10:56.754Z,1.70
2019-02-26T00:13:25.078Z,1.60
2019-02-26T00:15:53.301Z,1.50
2019-02-26T00:18:21.440Z,1.50
2019-02-26T00:20:49.984Z,1.60
2019-02-26T00:23:19.246Z,1.80
2019-02-26T00:25:46.706Z,1.90
2019-02-26T00:28:15.458Z,2.00
2019-02-26T00:30:43.096Z,1.90
2019-02-26T00:33:10.352Z,1.70
2019-02-26T00:35:39.326Z,1.60
2019-02-26T00:38:08.876Z,1.50
2019-02-26T00:40:37.129Z,1.50
2019-02-26T00:43:06.563Z,1.60
2019-02-26T00:45:34.562Z,1.60
2019-02-26T00:48:03.540Z,1.50
2019-02-26T00:50:33.135Z,1.60
2019-02-26T00:53:01.749Z,1.40
2019-02-26T00:55:29.830Z,1.30
2019-02-26T00:57:59.165Z,1.30
2019-02-26T01:00:28.527Z,1.20
2019-02-26T01:02:57.180Z,1.20
2019-02-26T01:05:24.408Z,1.20
2019-02-26T01:07:52.620Z,1.10
2019-02-26T01:10:21.685Z,1.10
2019-02-26T01:12:50.096Z,1.20
2019-02-26T01:15:17.331Z,1.20
2019-02-26T01:17:44.903Z,1.40
2019-02-26T01:20:13.342Z,1.50
2019-02-26T01:22:42.629Z,1.50
2019-02-26T01:25:10.741Z,1.50
2019-02-26T01:27:41.410Z,1.40
2019-02-26T01:30:10.332Z,1.20
2019-02-26T01:32:37.574Z,1.10
2019-02-26T01:35:06.015Z,1.00
2019-02-26T01:37:36.458Z,1.10
2019-02-26T01:40:07.374Z,1.20
2019-02-26T01:42:33.423Z,1.30
2019-02-26T01:45:00.655Z,1.20
2019-02-26T01:47:28.565Z,1.20
2019-02-26T01:49:55.973Z,1.20
2019-02-26T01:52:23.221Z,1.10
2019-02-26T01:54:51.289Z,1.10
2019-02-26T01:57:19.672Z,0.90
2019-02-26T01:59:49.913Z,0.90
2019-02-26T02:02:18.176Z,0.90
2019-02-26T02:04:45.308Z,0.90
2019-02-26T02:07:12.535Z,0.90
2019-02-26T02:09:40.130Z,0.90
2019-02-26T02:12:08.874Z,0.90
2019-02-26T02:14:36.883Z,0.90
2019-02-26T02:17:06.035Z,0.90
2019-02-26T02:19:33.656Z,0.90
2019-02-26T02:22:01.199Z,0.90
2019-02-26T02:24:28.759Z,0.80
2019-02-26T02:26:57.959Z,0.80
2019-02-26T02:29:28.058Z,0.70
2019-02-26T02:31:55.685Z,0.70
2019-02-26T02:34:26.999Z,0.80
2019-02-26T02:36:52.962Z,0.90
2019-02-26T02:39:20.863Z,0.80
2019-02-26T02:41:51.657Z,0.80
2019-02-26T02:44:20.589Z,0.80
2019-02-26T02:46:48.221Z,0.70
2019-02-26T02:49:17.781Z,0.60
2019-02-26T02:51:44.624Z,0.50
2019-02-26T02:54:14.815Z,0.60
2019-02-26T02:56:42.405Z,0.80
2019-02-26T02:59:11.205Z,0.90
2019-02-26T03:01:39.326Z,0.90
2019-02-26T03:04:06.587Z,0.90
2019-02-26T03:06:35.892Z,0.90
2019-02-26T03:09:11.643Z,0.80
2019-02-26T03:11:41.023Z,0.80
2019-02-26T03:14:08.427Z,0.70
2019-02-26T03:16:39.051Z,0.70
2019-02-26T03:19:07.769Z,0.60
2019-02-26T03:21:35.893Z,0.60
2019-02-26T03:24:05.670Z,0.70
2019-02-26T03:26:32.249Z,0.60
2019-02-26T03:28:59.513Z,0.50
2019-02-26T03:31:33.858Z,0.50
2019-02-26T03:34:04.237Z,0.50
2019-02-26T03:36:25.065Z,0.40
2019-02-26T03:38:54.760Z,0.40
2019-02-26T03:41:23.492Z,0.40
2019-02-26T03:43:51.291Z,0.40
2019-02-26T03:46:18.536Z,0.30
2019-02-26T03:48:46.108Z,0.40
2019-02-26T03:51:17.193Z,0.30
2019-02-26T03:53:44.126Z,0.40
2019-02-26T03:56:14.738Z,0.40
2019-02-26T03:58:40.980Z,0.40
2019-02-26T04:01:10.226Z,0.50
2019-02-26T04:03:39.429Z,0.40
2019-02-26T04:06:09.533Z,0.30
2019-02-26T04:08:36.219Z,0.20
2019-02-26T04:11:03.499Z,0.10
2019-02-26T04:13:30.726Z,0.00
2019-02-26T04:15:59.590Z,0.00
2019-02-26T04:18:27.871Z,-0.10
2019-02-26T04:20:56.823Z,-0.10
2019-02-26T04:23:24.404Z,0.00
2019-02-26T04:26:10.447Z,0.00
2019-02-26T04:28:48.685Z,-0.10
2019-02-26T04:32:12.213Z,-0.10
2019-02-26T04:35:02.457Z,-0.10
2019-02-26T04:38:28.469Z,0.00
2019-02-26T04:41:12.407Z,-0.10
2019-02-26T04:44:15.835Z,-0.10
2019-02-26T04:47:17.785Z,-0.10
2019-02-26T04:49:46.275Z,-0.10
2019-02-26T04:52:14.275Z,0.00
2019-02-26T04:54:43.696Z,-0.10
2019-02-26T04:57:11.639Z,-0.20
2019-02-26T04:59:41.273Z,-0.30
2019-02-26T05:02:08.356Z,-0.40
2019-02-26T05:04:36.889Z,-0.40
2019-02-26T05:07:07.514Z,-0.30
2019-02-26T05:09:35.453Z,-0.20
2019-02-26T05:12:02.925Z,0.00
2019-02-26T05:14:30.192Z,0.10
2019-02-26T05:16:57.533Z,0.00
2019-02-26T05:19:25.118Z,0.00
2019-02-26T05:21:53.525Z,-0.20
2019-02-26T05:24:24.408Z,-0.30
2019-02-26T05:26:51.197Z,-0.40
2019-02-26T05:29:20.560Z,-0.50
2019-02-26T05:31:47.865Z,-0.50
2019-02-26T05:34:18.208Z,-0.50
2019-02-26T05:36:46.154Z,-0.60
2019-02-26T05:39:14.555Z,-0.50
2019-02-26T05:41:42.977Z,-0.50
2019-02-26T05:44:10.819Z,-0.40
2019-02-26T05:46:38.492Z,-0.30
2019-02-26T05:49:09.750Z,-0.10
2019-02-26T05:51:36.044Z,-0.10
2019-02-26T05:54:07.696Z,-0.20
2019-02-26T05:56:34.083Z,-0.30
2019-02-26T05:59:06.845Z,-0.30
2019-02-26T06:01:32.300Z,-0.30
2019-02-26T06:03:59.903Z,-0.30
2019-02-26T06:06:27.165Z,-0.30
2019-02-26T06:08:55.191Z,-0.30
2019-02-26T06:11:28.329Z,-0.20
2019-02-26T06:13:55.527Z,-0.40
2019-02-26T06:16:24.238Z,-0.40
2019-02-26T06:18:51.880Z,-0.40
2019-02-26T06:21:20.971Z,-0.40
2019-02-26T06:23:53.132Z,-0.30
2019-02-26T06:26:20.783Z,-0.20
2019-02-26T06:28:52.737Z,-0.20
2019-02-26T06:31:22.180Z,-0.20
2019-02-26T06:33:50.616Z,-0.20
2019-02-26T06:36:19.233Z,-0.20
2019-02-26T06:38:49.612Z,-0.10
2019-02-26T06:41:16.491Z,0.00
2019-02-26T06:43:47.708Z,0.20
2019-02-26T06:46:14.158Z,0.30
2019-02-26T06:48:41.739Z,0.30
2019-02-26T06:51:08.994Z,0.20
2019-02-26T06:53:36.580Z,0.20
2019-02-26T06:56:04.139Z,0.30
2019-02-26T06:58:31.376Z,0.30
2019-02-26T07:00:59.038Z,0.30
2019-02-26T07:03:26.279Z,0.30
2019-02-26T07:05:53.861Z,0.40
2019-02-26T07:08:22.005Z,0.40
2019-02-26T07:10:50.252Z,0.50
2019-02-26T07:13:17.587Z,0.70
2019-02-26T07:15:45.529Z,0.90
2019-02-26T07:18:16.938Z,1.10
2019-02-26T07:20:46.640Z,1.40
2019-02-26T07:23:12.941Z,1.80
2019-02-26T07:25:43.978Z,1.90
2019-02-26T07:28:10.772Z,2.10
2019-02-26T07:30:39.984Z,2.30
2019-02-26T07:33:08.032Z,2.30
2019-02-26T07:35:37.387Z,2.40
2019-02-26T07:38:05.228Z,2.50
2019-02-26T07:40:33.027Z,3.10
2019-02-26T07:43:04.913Z,4.40
2019-02-26T07:45:32.170Z,5.50
2019-02-26T07:48:00.970Z,6.60
2019-02-26T07:50:31.392Z,7.10
2019-02-26T07:52:59.354Z,7.00
2019-02-26T07:55:27.672Z,7.00
2019-02-26T07:57:55.215Z,7.10
2019-02-26T08:00:23.200Z,7.10
2019-02-26T08:02:52.041Z,7.10
2019-02-26T08:05:21.213Z,6.50
2019-02-26T08:07:51.319Z,6.60
2019-02-26T08:10:19.510Z,6.90
2019-02-26T08:12:47.468Z,7.30
2019-02-26T08:15:15.747Z,7.60
2019-02-26T08:17:45.660Z,7.70
2019-02-26T08:20:14.895Z,8.00
2019-02-26T08:22:42.431Z,8.90
2019-02-26T08:25:09.972Z,9.20
2019-02-26T08:27:37.894Z,9.50
2019-02-26T08:30:08.819Z,10.10
2019-02-26T08:32:36.541Z,9.70
2019-02-26T08:35:04.690Z,9.60
2019-02-26T08:37:32.252Z,9.60
2019-02-26T08:39:59.807Z,10.30
2019-02-26T08:42:27.049Z,10.70
2019-02-26T08:44:55.911Z,11.10
2019-02-26T08:47:23.591Z,11.20
2019-02-26T08:49:51.277Z,11.00
2019-02-26T08:52:21.519Z,11.00
2019-02-26T08:54:47.956Z,11.20
2019-02-26T08:57:15.694Z,12.30
2019-02-26T08:59:45.457Z,13.10
2019-02-26T09:02:12.063Z,13.50
2019-02-26T09:04:40.715Z,13.90
2019-02-26T09:07:08.442Z,13.50
2019-02-26T09:09:35.690Z,13.90
2019-02-26T09:12:03.328Z,14.50
2019-02-26T09:14:34.487Z,14.40
2019-02-26T09:17:01.937Z,14.60
2019-02-26T09:19:30.394Z,14.60
2019-02-26T09:21:58.774Z,14.30
2019-02-26T09:24:26.096Z,13.30
2019-02-26T09:26:54.949Z,13.00
2019-02-26T09:29:22.823Z,13.40
2019-02-26T09:31:50.323Z,13.40
2019-02-26T09:34:17.544Z,13.40
2019-02-26T09:36:45.805Z,13.10
2019-02-26T09:39:15.445Z,13.40
2019-02-26T09:41:45.427Z,13.50
2019-02-26T09:44:12.516Z,13.30
2019-02-26T09:46:41.928Z,13.20
2019-02-26T09:49:10.512Z,13.50
2019-02-26T09:51:40.007Z,14.30
2019-02-26T09:54:07.268Z,15.50
2019-02-26T09:56:34.509Z,16.50
2019-02-26T09:59:02.474Z,17.20
2019-02-26T10:01:33.139Z,18.10
2019-02-26T10:04:01.298Z,18.20
2019-02-26T10:06:29.457Z,18.40
2019-02-26T10:08:57.048Z,18.50
2019-02-26T10:11:26.120Z,17.90
2019-02-26T10:13:53.319Z,17.60
2019-02-26T10:16:21.708Z,17.50
2019-02-26T10:18:52.539Z,17.90
2019-02-26T10:21:20.556Z,18.40
2019-02-26T10:23:51.472Z,19.10
2019-02-26T10:26:17.511Z,20.10
2019-02-26T10:28:46.801Z,20.50
2019-02-26T10:31:14.165Z,20.60
2019-02-26T10:33:43.954Z,21.00
2019-02-26T10:36:12.973Z,21.10
2019-02-26T10:38:39.695Z,21.20
2019-02-26T10:41:06.927Z,21.70
2019-02-26T10:43:34.177Z,22.20
2019-02-26T10:46:01.392Z,21.90
2019-02-26T10:48:28.645Z,20.90
2019-02-26T10:50:55.905Z,20.20
2019-02-26T10:53:23.563Z,20.20
2019-02-26T10:55:50.861Z,20.20
2019-02-26T10:58:18.123Z,20.70
2019-02-26T11:00:46.235Z,20.60
2019-02-26T11:03:14.921Z,20.00
2019-02-26T11:05:45.025Z,19.80
2019-02-26T11:08:11.884Z,19.90
2019-02-26T11:10:41.874Z,19.90
2019-02-26T11:13:08.257Z,20.50
2019-02-26T11:15:36.023Z,20.50
2019-02-26T11:18:03.431Z,20.90
2019-02-26T11:20:33.890Z,21.70
2019-02-26T11:22:59.888Z,21.40
2019-02-26T11:25:27.726Z,21.70
2019-02-26T11:27:55.402Z,21.90
2019-02-26T11:30:23.881Z,21.90
2019-02-26T11:32:56.013Z,22.50
2019-02-26T11:35:22.539Z,22.90
2019-02-26T11:37:52.228Z,22.30
2019-02-26T11:40:20.334Z,22.90
2019-02-26T11:42:49.339Z,22.60
2019-02-26T11:45:19.345Z,23.40
2019-02-26T11:47:47.127Z,23.80
2019-02-26T11:50:16.124Z,24.10
2019-02-26T11:52:43.356Z,23.10
2019-02-26T11:55:11.381Z,23.20
2019-02-26T11:57:39.901Z,23.50
2019-02-26T12:00:31.310Z,24.10
2019-02-26T12:02:55.735Z,23.70
2019-02-26T12:05:24.968Z,24.40
2019-02-26T12:07:53.833Z,23.70
2019-02-26T12:10:21.592Z,23.80
2019-02-26T12:12:51.419Z,24.00
2019-02-26T12:15:18.297Z,25.00
2019-02-26T12:17:49.243Z,25.40
2019-02-26T12:20:19.643Z,24.80
2019-02-26T12:22:48.027Z,24.60
2019-02-26T12:25:16.244Z,24.40
2019-02-26T12:27:45.614Z,24.20
2019-02-26T12:30:17.598Z,23.90
2019-02-26T12:32:47.262Z,24.10
2019-02-26T12:35:17.210Z,24.20
2019-02-26T12:37:43.068Z,24.20
2019-02-26T12:40:13.124Z,24.10
2019-02-26T12:42:40.445Z,23.50
2019-02-26T12:45:10.103Z,22.70
2019-02-26T12:47:40.689Z,23.10
2019-02-26T12:50:11.532Z,22.90
2019-02-26T12:52:38.756Z,23.00
2019-02-26T12:55:08.024Z,21.70
2019-02-26T12:57:35.715Z,22.10
2019-02-26T13:00:04.289Z,21.40
2019-02-26T13:02:31.863Z,21.90
2019-02-26T13:04:59.521Z,22.20
2019-02-26T13:07:27.079Z,22.00
2019-02-26T13:09:59.685Z,21.80
2019-02-26T13:12:28.844Z,21.10
2019-02-26T13:14:54.589Z,21.40
2019-02-26T13:17:26.176Z,20.90
2019-02-26T13:19:57.556Z,20.40
2019-02-26T13:22:20.849Z,19.90
2019-02-26T13:24:48.499Z,19.40
2019-02-26T13:27:15.812Z,19.30
2019-02-26T13:29:54.031Z,19.00
2019-02-26T13:32:13.653Z,18.80
2019-02-26T13:34:41.294Z,18.70
2019-02-26T13:37:08.508Z,18.50
2019-02-26T13:39:38.633Z,18.10
2019-02-26T13:44:34.592Z,18.10
2019-02-26T13:47:01.899Z,17.90
2019-02-26T13:49:29.410Z,17.70
2019-02-26T13:51:56.672Z,17.80
2019-02-26T13:54:23.902Z,17.80
2019-02-26T13:56:51.165Z,17.90
2019-02-26T13:59:18.497Z,18.00
2019-02-26T14:01:45.827Z,18.10
2019-02-26T14:04:13.220Z,18.20
2019-02-26T14:06:40.446Z,18.20
2019-02-26T14:09:07.931Z,17.90
2019-02-26T14:11:35.236Z,17.90
2019-02-26T14:14:04.285Z,17.80
2019-02-26T14:16:32.615Z,17.80
2019-02-26T14:19:00.088Z,17.70
2019-02-26T14:21:27.694Z,17.80
2019-02-26T14:23:55.335Z,17.60
2019-02-26T14:26:23.201Z,17.50
2019-02-26T14:28:50.432Z,17.50
2019-02-26T14:31:18.072Z,17.60
2019-02-26T14:33:45.300Z,17.70
2019-02-26T14:36:12.637Z,17.70
2019-02-26T14:38:40.198Z,17.50
2019-02-26T14:41:07.454Z,17.30
2019-02-26T14:43:34.695Z,17.30
2019-02-26T14:46:01.959Z,17.30
2019-02-26T14:48:29.280Z,17.50
2019-02-26T14:50:56.534Z,17.50
2019-02-26T14:53:24.192Z,17.50
2019-02-26T14:55:53.107Z,17.50
2019-02-26T14:58:20.560Z,17.40
2019-02-26T15:00:57.129Z,17.40
2019-02-26T15:03:17.278Z,17.30
2019-02-26T15:05:45.064Z,17.20
2019-02-26T15:08:12.279Z,17.40
2019-02-26T15:10:40.184Z,17.40
2019-02-26T15:13:07.631Z,17.40
2019-02-26T15:15:35.199Z,17.40
2019-02-26T15:18:02.533Z,17.40
2019-02-26T15:20:30.337Z,17.40
2019-02-26T15:22:57.776Z,17.30
2019-02-26T15:25:25.045Z,17.20
2019-02-26T15:27:52.358Z,17.10
2019-02-26T15:30:20.350Z,17.00
2019-02-26T15:32:47.942Z,16.90
2019-02-26T15:35:15.185Z,16.70
2019-02-26T15:37:42.720Z,16.70
2019-02-26T15:40:10.657Z,16.70
2019-02-26T15:42:37.888Z,16.70
2019-02-26T15:45:08.367Z,16.50
2019-02-26T15:47:35.931Z,16.50
2019-02-26T15:50:04.157Z,16.40
2019-02-26T15:52:31.792Z,16.30
2019-02-26T15:54:59.249Z,16.30
2019-02-26T15:57:28.596Z,16.40
2019-02-26T15:59:57.088Z,16.20
2019-02-26T16:02:25.957Z,16.10
2019-02-26T16:04:54.112Z,16.10
2019-02-26T16:07:21.415Z,15.80
2019-02-26T16:09:48.973Z,15.50
2019-02-26T16:12:16.247Z,15.30
2019-02-26T16:14:43.775Z,15.20
2019-02-26T16:17:11.361Z,15.10
2019-02-26T16:19:38.931Z,15.00
2019-02-26T16:22:06.151Z,14.90
2019-02-26T16:24:33.730Z,14.80
2019-02-26T16:27:01.717Z,14.60
2019-02-26T16:29:29.230Z,14.60
2019-02-26T16:31:57.323Z,14.50
2019-02-26T16:34:24.676Z,14.30
2019-02-26T16:36:52.632Z,14.20
2019-02-26T16:39:22.533Z,14.00
2019-02-26T16:41:49.945Z,13.90
2019-02-26T16:44:17.257Z,13.70
2019-02-26T16:46:44.811Z,13.60
2019-02-26T16:49:12.036Z,13.60
2019-02-26T16:51:39.315Z,13.30
2019-02-26T16:54:07.498Z,13.20
2019-02-26T16:56:35.601Z,13.10
2019-02-26T16:59:02.824Z,13.00
2019-02-26T17:01:30.477Z,12.80
2019-02-26T17:03:58.037Z,12.60
2019-02-26T17:06:25.268Z,12.40
2019-02-26T17:08:52.567Z,12.20
2019-02-26T17:11:20.120Z,12.00
2019-02-26T17:13:47.368Z,11.90
2019-02-26T17:16:14.712Z,11.60
2019-02-26T17:18:42.890Z,11.60
2019-02-26T17:21:10.731Z,11.60
2019-02-26T17:23:37.993Z,11.60
2019-02-26T17:26:06.161Z,11.50
2019-02-26T17:28:35.029Z,11.40
2019-02-26T17:31:02.556Z,11.10
2019-02-26T17:33:30.840Z,10.90
2019-02-26T17:35:59.590Z,10.80
2019-02-26T17:38:31.980Z,10.60
2019-02-26T17:40:59.409Z,10.50
2019-02-26T17:43:26.723Z,10.30
2019-02-26T17:45:54.344Z,10.10
2019-02-26T17:48:21.981Z,9.90
2019-02-26T17:50:49.285Z,9.90
2019-02-26T17:53:16.804Z,9.80
2019-02-26T17:55:44.358Z,9.70
2019-02-26T17:58:11.789Z,9.60
2019-02-26T18:00:41.416Z,9.50
2019-02-26T18:03:19.171Z,9.40
2019-02-26T18:05:51.295Z,9.20
2019-02-26T18:08:18.814Z,9.10
2019-02-26T18:10:45.159Z,9.10
2019-02-26T18:13:12.727Z,9.10
2019-02-26T18:15:40.232Z,9.00
2019-02-26T18:18:07.468Z,9.00
2019-02-26T18:20:34.726Z,9.00
2019-02-26T18:23:02.492Z,8.90
2019-02-26T18:25:29.751Z,8.90
2019-02-26T18:27:57.094Z,8.90
2019-02-26T18:30:24.431Z,8.90
2019-02-26T18:32:55.642Z,8.80
2019-02-26T18:35:20.892Z,8.70
2019-02-26T18:37:48.440Z,8.60
2019-02-26T18:40:15.981Z,8.50
2019-02-26T18:42:43.419Z,8.40
2019-02-26T18:45:16.629Z,8.40
2019-02-26T18:47:43.865Z,8.20
2019-02-26T18:50:11.128Z,8.10
2019-02-26T18:52:41.396Z,8.10
2019-02-26T18:55:10.043Z,8.10
2019-02-26T18:57:37.273Z,8.10
2019-02-26T19:00:06.560Z,7.90
2019-02-26T19:02:35.995Z,7.80
2019-02-26T19:05:03.956Z,7.80
2019-02-26T19:07:33.825Z,7.70
2019-02-26T19:10:00.756Z,7.60
2019-02-26T19:12:30.256Z,7.60
2019-02-26T19:14:57.108Z,7.40
2019-02-26T19:17:26.829Z,7.20
2019-02-26T19:19:53.947Z,7.00
2019-02-26T19:22:21.201Z,6.90
2019-02-26T19:24:48.421Z,6.90
2019-02-26T19:27:19.127Z,6.80
2019-02-26T19:29:45.128Z,6.80
2019-02-26T19:32:15.422Z,6.70
2019-02-26T19:34:41.925Z,6.70
2019-02-26T19:37:09.495Z,6.70
2019-02-26T19:39:36.720Z,6.70
2019-02-26T19:42:04.313Z,6.70
2019-02-26T19:44:35.721Z,6.60
2019-02-26T19:47:00.965Z,6.60
2019-02-26T19:49:28.233Z,6.40
2019-02-26T19:51:55.872Z,6.30
2019-02-26T19:54:23.437Z,6.20
2019-02-26T19:56:50.709Z,6.30
2019-02-26T19:59:18.360Z,6.30
2019-02-26T20:01:45.889Z,6.30
2019-02-26T20:04:13.321Z,6.20
2019-02-26T20:06:40.649Z,6.10
2019-02-26T20:09:08.185Z,6.10
2019-02-26T20:11:35.734Z,6.10
2019-02-26T20:14:04.886Z,6.10
2019-02-26T20:16:32.208Z,6.00
2019-02-26T20:18:59.756Z,6.00
2019-02-26T20:21:27.161Z,6.00
2019-02-26T20:23:54.412Z,5.90
2019-02-26T20:26:21.661Z,5.90
2019-02-26T20:28:48.883Z,5.80
2019-02-26T20:31:16.137Z,5.80
2019-02-26T20:33:43.766Z,5.70
2019-02-26T20:36:10.997Z,5.70
2019-02-26T20:38:38.267Z,5.60
2019-02-26T20:41:05.936Z,5.60
2019-02-26T20:43:36.373Z,5.50
2019-02-26T20:46:02.627Z,5.40
2019-02-26T20:48:29.848Z,5.40
2019-02-26T20:50:57.398Z,5.50
2019-02-26T20:53:24.956Z,5.40
2019-02-26T20:55:52.991Z,5.40
2019-02-26T20:58:22.220Z,5.40
2019-02-26T21:00:49.536Z,5.50
2019-02-26T21:03:16.759Z,5.30
2019-02-26T21:05:44.662Z,5.10
2019-02-26T21:08:13.283Z,5.00
2019-02-26T21:10:40.496Z,4.90
2019-02-26T21:13:08.116Z,4.90
2019-02-26T21:15:35.370Z,5.00
2019-02-26T21:18:02.654Z,4.90
2019-02-26T21:20:29.877Z,4.90
2019-02-26T21:22:57.518Z,4.80
2019-02-26T21:25:24.747Z,4.70
2019-02-26T21:27:51.988Z,4.60
2019-02-26T21:30:19.564Z,4.60
2019-02-26T21:32:47.134Z,4.60
2019-02-26T21:35:14.367Z,4.60
2019-02-26T21:37:41.615Z,4.60
2019-02-26T21:40:09.163Z,4.70
2019-02-26T21:42:36.387Z,4.60
2019-02-26T21:45:04.532Z,4.70
2019-02-26T21:47:31.755Z,4.70
2019-02-26T21:49:59.223Z,4.60
2019-02-26T21:52:26.463Z,4.40
2019-02-26T21:54:57.726Z,4.30
2019-02-26T21:57:22.849Z,4.10
2019-02-26T21:59:50.329Z,4.10
2019-02-26T22:02:18.840Z,4.00
2019-02-26T22:04:46.796Z,4.00
2019-02-26T22:07:14.056Z,4.00
2019-02-26T22:09:41.973Z,4.10
2019-02-26T22:12:09.500Z,4.20
2019-02-26T22:14:37.442Z,4.20
2019-02-26T22:17:05.140Z,4.20
2019-02-26T22:19:32.404Z,4.10
2019-02-26T22:21:59.650Z,4.00
2019-02-26T22:24:27.229Z,4.00
2019-02-26T22:26:59.405Z,3.80
2019-02-26T22:29:24.048Z,3.70
2019-02-26T22:31:51.296Z,3.60
2019-02-26T22:34:19.001Z,3.60
2019-02-26T22:36:47.755Z,3.70
2019-02-26T22:39:15.028Z,3.70
2019-02-26T22:41:42.256Z,3.70
2019-02-26T22:44:09.496Z,3.70
2019-02-26T22:46:36.773Z,3.60
2019-02-26T22:49:04.139Z,3.50
2019-02-26T22:51:31.683Z,3.50
2019-02-26T22:53:59.230Z,3.60
2019-02-26T22:56:26.592Z,3.50
2019-02-26T22:58:53.824Z,3.30
2019-02-26T23:01:30.804Z,3.30
2019-02-26T23:03:57.663Z,3.40
2019-02-26T23:06:24.911Z,3.30
2019-02-26T23:08:52.356Z,3.30
2019-02-26T23:11:20.237Z,3.20
2019-02-26T23:13:48.210Z,3.30
2019-02-26T23:16:18.453Z,3.40
2019-02-26T23:18:45.983Z,3.50
2019-02-26T23:21:15.499Z,3.50
2019-02-26T23:23:42.596Z,3.40
2019-02-26T23:26:09.960Z,3.20
2019-02-26T23:28:37.408Z,3.10
2019-02-26T23:31:06.338Z,3.00
2019-02-26T23:33:33.919Z,3.00
2019-02-26T23:36:01.671Z,2.90
2019-02-26T23:38:28.967Z,2.90
2019-02-26T23:40:58.190Z,2.80
2019-02-26T23:43:25.689Z,3.00
2019-02-26T23:45:56.823Z,2.90
2019-02-26T23:48:22.469Z,2.90
2019-02-26T23:50:49.724Z,2.70
2019-02-26T23:53:16.940Z,2.70
2019-02-26T23:55:47.230Z,2.60
2019-02-26T23:58:13.589Z,2.70
